Time;durP1;ratioP1;P1;durP2;ratioP2;P2;SDS_P1;SDS_P2;PMS_P1;PMS_P2;Temp;Humidity;BMP_temperature;BMP_pressure;BME280_temperature;BME280_humidity;BME280_pressure;Samples;Min_cycle;Max_cycle;Signal;HPM_P1;HPM_P2
2023/03/13 00:01:35;;;;;;;0.75;0.75;;;;;;;-6.68;86.40;97856.09;4981642;28;20058;-80
2023/03/13 00:04:02;;;;;;;0.70;0.70;;;;;;;-6.65;86.24;97873.31;4977042;28;20050;-80
2023/03/13 00:06:33;;;;;;;0.95;0.95;;;;;;;-6.64;85.90;97870.50;4971585;28;20774;-80
2023/03/13 00:09:02;;;;;;;0.90;0.90;;;;;;;-6.66;85.66;97867.25;4974099;28;20054;-80
2023/03/13 00:11:29;;;;;;;1.00;1.00;;;;;;;-6.62;85.43;97872.97;4990761;28;20069;-79
2023/03/13 00:13:59;;;;;;;0.90;0.90;;;;;;;-6.64;85.21;97875.75;4991056;28;20050;-80
2023/03/13 00:16:27;;;;;;;0.90;0.90;;;;;;;-6.68;85.48;97874.47;4989508;28;20054;-80
2023/03/13 00:18:55;;;;;;;0.73;0.73;;;;;;;-6.71;85.62;97885.25;4990865;28;20140;-80
2023/03/13 00:21:25;;;;;;;0.80;0.80;;;;;;;-6.72;85.41;97877.56;4990534;28;20062;-79
2023/03/13 00:23:52;;;;;;;0.80;0.80;;;;;;;-6.73;85.60;97889.03;4990500;28;20081;-79
2023/03/13 00:26:21;;;;;;;0.77;0.77;;;;;;;-6.83;85.58;97889.19;4990406;28;20042;-79
2023/03/13 00:28:49;;;;;;;0.90;0.90;;;;;;;-6.90;85.71;97883.75;4981262;28;20086;-79
2023/03/13 00:31:19;;;;;;;0.90;0.90;;;;;;;-7.05;86.24;97888.81;4970447;28;20050;-81
2023/03/13 00:33:51;;;;;;;0.90;0.90;;;;;;;-7.12;86.77;97894.84;4954091;28;20418;-80
2023/03/13 00:36:21;;;;;;;0.90;0.90;;;;;;;-7.09;86.84;97905.88;4969681;28;20576;-81
2023/03/13 00:38:49;;;;;;;0.90;0.90;;;;;;;-7.15;86.85;97903.03;4971131;28;20101;-79
2023/03/13 00:41:24;;;;;;;0.88;0.88;;;;;;;-7.17;87.03;97921.56;4969525;28;20051;-79
2023/03/13 00:43:52;;;;;;;0.82;0.82;;;;;;;-7.15;87.29;97927.47;4969901;28;20532;-79
2023/03/13 00:46:23;;;;;;;0.80;0.80;;;;;;;-7.07;87.26;97922.25;4953932;28;20568;-79
2023/03/13 00:48:50;;;;;;;0.88;0.88;;;;;;;-7.06;87.15;97925.72;4971109;28;20097;-79
2023/03/13 00:51:19;;;;;;;0.90;0.90;;;;;;;-7.05;87.12;97925.53;4953551;28;20494;-78
2023/03/13 00:53:47;;;;;;;0.73;0.73;;;;;;;-7.04;86.93;97927.19;4970988;28;20078;-79
2023/03/13 00:56:16;;;;;;;1.10;1.10;;;;;;;-7.07;87.33;97943.22;4969387;28;20050;-79
2023/03/13 00:58:45;;;;;;;0.90;0.90;;;;;;;-7.04;87.40;97937.69;4937681;28;20080;-80
2023/03/13 01:01:13;;;;;;;1.13;1.13;;;;;;;-7.06;87.41;97944.06;4969148;28;20054;-80
2023/03/13 01:03:42;;;;;;;0.90;0.90;;;;;;;-7.06;87.47;97951.94;4937805;28;20043;-80
2023/03/13 01:06:12;;;;;;;0.80;0.80;;;;;;;-7.18;87.25;97951.38;4969497;28;20051;-79
2023/03/13 01:08:40;;;;;;;1.00;1.00;;;;;;;-7.31;88.16;97957.06;4969153;28;20513;-81
2023/03/13 01:11:14;;;;;;;0.80;0.80;;;;;;;-7.35;88.16;97968.03;4957198;28;20395;-79
2023/03/13 01:13:41;;;;;;;0.90;0.90;;;;;;;-7.43;88.62;97969.63;4972963;28;20395;-80
2023/03/13 01:16:14;;;;;;;0.90;0.90;;;;;;;-7.44;88.79;97973.22;4941003;28;20054;-80
2023/03/13 01:18:47;;;;;;;0.80;0.80;;;;;;;-7.45;88.82;97981.22;4972512;28;20145;-79
2023/03/13 01:21:15;;;;;;;0.90;0.90;;;;;;;-7.64;89.19;97985.72;4971936;28;20149;-80
2023/03/13 01:23:42;;;;;;;1.10;1.10;;;;;;;-7.64;89.29;97987.53;4975419;28;20133;-81
2023/03/13 01:26:09;;;;;;;0.82;0.82;;;;;;;-7.67;89.72;97996.50;4974189;28;20456;-80
2023/03/13 01:28:37;;;;;;;0.88;0.88;;;;;;;-7.76;89.87;98005.28;4972387;28;20065;-80
2023/03/13 01:31:19;;;;;;;0.80;0.80;;;;;;;-7.81;89.99;98009.34;4987790;28;20051;-81
2023/03/13 01:33:52;;;;;;;0.90;0.90;;;;;;;-7.89;90.77;98003.06;4987677;28;20144;-80
2023/03/13 01:36:19;;;;;;;0.77;0.77;;;;;;;-7.96;90.68;98016.91;4987724;28;20050;-80
2023/03/13 01:38:48;;;;;;;1.00;1.00;;;;;;;-7.95;91.11;98024.63;4987364;28;20054;-79
2023/03/13 01:41:15;;;;;;;1.00;1.00;;;;;;;-7.96;91.42;98024.78;4971452;28;20081;-80
2023/03/13 01:43:44;;;;;;;0.90;0.90;;;;;;;-7.90;91.18;98030.25;4958864;28;20054;-80
2023/03/13 01:46:17;;;;;;;1.00;1.00;;;;;;;-7.91;91.29;98033.00;4991236;28;20062;-80
2023/03/13 01:49:36;;;;;;;0.93;0.93;;;;;;;-7.94;91.21;98043.78;4976037;28;20093;-79
2023/03/13 01:52:10;;;;;;;0.90;0.90;;;;;;;-7.96;91.22;98041.31;4990507;28;20069;-79
2023/03/13 01:55:04;;;;;;;1.08;1.08;;;;;;;-8.00;91.29;98050.44;4967251;28;20078;-80
2023/03/13 01:57:36;;;;;;;1.00;1.00;;;;;;;-8.14;91.67;98058.81;4976609;28;20067;-80
2023/03/13 02:00:15;;;;;;;0.95;0.95;;;;;;;-8.17;92.16;98061.75;4976610;28;20050;-80
2023/03/13 02:02:48;;;;;;;1.30;1.20;;;;;;;-8.23;92.20;98078.03;4976888;28;20050;-80
2023/03/13 02:05:16;;;;;;;1.08;1.08;;;;;;;-8.23;92.60;98078.03;4994791;28;20547;-81
2023/03/13 02:08:08;;;;;;;0.93;0.93;;;;;;;-8.32;92.64;98088.41;4998170;28;20050;-80
2023/03/13 02:10:38;;;;;;;1.00;1.00;;;;;;;-8.28;93.04;98088.94;4998469;28;20109;-81
2023/03/13 02:13:06;;;;;;;1.20;1.17;;;;;;;-8.30;93.32;98096.13;4976676;28;20042;-81
2023/03/13 02:15:33;;;;;;;0.93;0.93;;;;;;;-8.29;93.24;98093.34;4991875;28;20050;-81
2023/03/13 02:18:00;;;;;;;1.10;1.10;;;;;;;-8.36;93.17;98105.38;4991735;28;20501;-81
2023/03/13 02:20:27;;;;;;;1.10;1.10;;;;;;;-8.37;93.31;98105.53;4983276;28;20046;-81
2023/03/13 02:23:24;;;;;;;1.40;1.30;;;;;;;-8.26;93.48;98117.59;4992806;28;20061;-81
2023/03/13 02:25:52;;;;;;;1.30;1.20;;;;;;;-8.19;93.22;98123.91;4991907;28;20050;-80
2023/03/13 02:28:24;;;;;;;1.08;1.08;;;;;;;-8.19;93.00;98121.28;4976696;28;20049;-80
2023/03/13 02:30:54;;;;;;;0.90;0.90;;;;;;;-8.31;92.96;98125.88;4992183;28;20053;-80
2023/03/13 02:33:25;;;;;;;1.10;1.10;;;;;;;-8.29;93.05;98134.41;4987674;28;20050;-80
2023/03/13 02:35:53;;;;;;;1.00;1.00;;;;;;;-8.23;92.98;98144.28;4991783;28;20042;-80
2023/03/13 02:38:23;;;;;;;1.30;1.20;;;;;;;-8.36;92.89;98141.19;4975661;28;20073;-79
2023/03/13 02:40:52;;;;;;;1.35;1.25;;;;;;;-8.46;93.15;98150.94;4975989;28;20532;-80
2023/03/13 02:43:31;;;;;;;1.13;1.13;;;;;;;-8.56;93.38;98154.44;4991416;28;20054;-81
2023/03/13 02:46:06;;;;;;;0.90;0.90;;;;;;;-8.62;93.88;98159.41;4991626;28;20054;-79
2023/03/13 02:48:42;;;;;;;1.10;1.10;;;;;;;-8.58;94.27;98160.75;4991484;28;20051;-80
2023/03/13 02:51:22;;;;;;;1.00;1.00;;;;;;;-8.60;94.26;98162.72;4975290;28;20050;-81
2023/03/13 02:53:51;;;;;;;1.10;1.10;;;;;;;-8.49;94.35;98167.75;4974954;28;20046;-79
2023/03/13 02:56:21;;;;;;;1.00;1.00;;;;;;;-8.48;93.93;98174.63;4991502;28;20048;-81
2023/03/13 02:58:49;;;;;;;1.17;1.15;;;;;;;-8.54;94.34;98172.59;4991360;28;20082;-80
2023/03/13 03:01:20;;;;;;;1.10;1.10;;;;;;;-8.46;94.27;98177.91;4982921;28;20065;-80
2023/03/13 03:03:48;;;;;;;1.38;1.27;;;;;;;-8.56;94.01;98184.97;4982748;28;20166;-81
2023/03/13 03:06:20;;;;;;;1.33;1.23;;;;;;;-8.54;94.43;98186.47;4989034;28;20054;-80
2023/03/13 03:08:48;;;;;;;1.35;1.25;;;;;;;-8.50;94.45;98187.03;4990490;28;20063;-81
2023/03/13 03:11:15;;;;;;;1.30;1.20;;;;;;;-8.50;94.24;98189.66;4991977;28;20050;-80
2023/03/13 03:13:48;;;;;;;1.10;1.10;;;;;;;-8.48;94.42;98192.97;4986770;28;20537;-81
2023/03/13 03:16:19;;;;;;;1.05;1.05;;;;;;;-8.57;94.27;98194.63;4978446;28;20057;-81
2023/03/13 03:18:46;;;;;;;1.40;1.30;;;;;;;-8.51;94.34;98195.84;4990555;28;20061;-80
2023/03/13 03:21:13;;;;;;;1.13;1.13;;;;;;;-8.42;94.29;98205.47;4990107;28;20422;-81
2023/03/13 03:23:40;;;;;;;1.13;1.13;;;;;;;-8.45;94.09;98213.59;4981825;28;20057;-80
2023/03/13 03:26:08;;;;;;;0.93;0.93;;;;;;;-8.45;94.03;98210.97;4972616;28;20050;-80
2023/03/13 03:28:36;;;;;;;0.95;0.95;;;;;;;-8.41;94.29;98219.34;4971019;28;20047;-81
2023/03/13 03:31:10;;;;;;;1.02;1.02;;;;;;;-8.45;93.93;98221.44;4956046;28;20094;-81
2023/03/13 03:33:38;;;;;;;1.05;1.05;;;;;;;-8.40;94.07;98237.56;4973751;28;20062;-82
2023/03/13 03:36:12;;;;;;;1.05;1.05;;;;;;;-8.41;94.00;98238.50;4971136;28;20413;-83
2023/03/13 03:38:42;;;;;;;1.30;1.20;;;;;;;-8.40;93.92;98242.78;4956649;28;20490;-82
2023/03/13 03:41:13;;;;;;;1.40;1.30;;;;;;;-8.40;93.88;98242.78;4970722;28;20054;-82
2023/03/13 03:43:40;;;;;;;1.40;1.30;;;;;;;-8.44;93.72;98240.59;4971216;28;20407;-82
2023/03/13 03:46:08;;;;;;;1.38;1.27;;;;;;;-8.53;93.78;98244.91;4981119;28;20046;-81
2023/03/13 03:48:37;;;;;;;0.98;0.98;;;;;;;-8.60;94.08;98249.03;4970697;28;20077;-81
2023/03/13 03:51:06;;;;;;;1.08;1.08;;;;;;;-8.70;94.18;98249.06;4981212;28;20042;-82
2023/03/13 03:53:38;;;;;;;1.05;1.05;;;;;;;-8.79;94.46;98255.94;4970862;28;20417;-82
2023/03/13 03:56:08;;;;;;;1.10;1.10;;;;;;;-8.76;94.90;98253.06;4970596;28;20146;-83
2023/03/13 03:58:48;;;;;;;1.30;1.20;;;;;;;-8.82;94.88;98258.84;4970549;28;20062;-83
2023/03/13 04:01:21;;;;;;;1.40;1.30;;;;;;;-8.84;94.83;98252.94;4964947;28;20054;-81
2023/03/13 04:03:48;;;;;;;1.25;1.20;;;;;;;-8.79;95.13;98265.59;4981435;28;20109;-80
2023/03/13 04:06:17;;;;;;;1.10;1.10;;;;;;;-8.75;94.88;98273.03;4990576;28;20420;-80
2023/03/13 04:08:45;;;;;;;1.40;1.30;;;;;;;-8.73;94.63;98267.66;4988824;28;20062;-83
2023/03/13 04:11:16;;;;;;;1.27;1.20;;;;;;;-8.69;94.69;98273.41;4980667;28;20157;-82
2023/03/13 04:13:48;;;;;;;1.08;1.08;;;;;;;-8.68;94.63;98275.06;4980289;28;20134;-82
2023/03/13 04:16:15;;;;;;;1.30;1.20;;;;;;;-8.67;94.13;98279.34;4974173;28;20050;-83
2023/03/13 04:18:44;;;;;;;1.10;1.10;;;;;;;-8.64;94.30;98298.19;4989729;28;20092;-82
2023/03/13 04:21:11;;;;;;;1.30;1.20;;;;;;;-8.60;94.03;98290.91;4991043;28;20054;-81
2023/03/13 04:23:46;;;;;;;1.35;1.25;;;;;;;-8.59;93.80;98289.94;4992400;28;20383;-83
2023/03/13 04:26:14;;;;;;;1.40;1.30;;;;;;;-8.68;93.53;98301.22;4990896;28;20089;-81
2023/03/13 04:28:43;;;;;;;1.35;1.25;;;;;;;-8.63;93.83;98307.72;4990736;28;20089;-83
2023/03/13 04:31:15;;;;;;;1.40;1.30;;;;;;;-8.60;93.73;98304.00;4990273;28;20054;-83
2023/03/13 04:34:05;;;;;;;0.98;0.98;;;;;;;-8.63;93.81;98317.31;4988216;28;20085;-82
2023/03/13 04:36:50;;;;;;;1.40;1.30;;;;;;;-8.59;93.64;98321.31;4991814;28;20050;-81
2023/03/13 04:39:41;;;;;;;1.27;1.20;;;;;;;-8.56;93.49;98323.66;4989903;28;20058;-82
2023/03/13 04:42:28;;;;;;;1.30;1.20;;;;;;;-8.55;93.52;98338.41;4982367;28;20062;-81
2023/03/13 04:45:12;;;;;;;1.13;1.13;;;;;;;-8.56;93.31;98336.75;4990428;28;20076;-82
2023/03/13 04:47:55;;;;;;;1.00;1.00;;;;;;;-8.56;93.46;98342.81;4990280;28;20058;-82
2023/03/13 04:50:44;;;;;;;1.10;1.10;;;;;;;-8.43;93.38;98358.22;4989846;28;20217;-82
2023/03/13 04:53:11;;;;;;;1.02;1.02;;;;;;;-8.27;93.07;98375.94;4991084;28;20097;-81
2023/03/13 04:56:07;;;;;;;1.10;1.10;;;;;;;-8.17;92.19;98378.53;4985944;28;20050;-81
2023/03/13 04:58:53;;;;;;;0.80;0.80;;;;;;;-8.11;92.10;98377.97;4991171;28;20445;-83
2023/03/13 05:01:43;;;;;;;1.20;1.17;;;;;;;-8.03;91.37;98379.88;4993408;28;20069;-83
2023/03/13 05:04:29;;;;;;;1.08;1.08;;;;;;;-8.01;91.37;98388.41;4992898;28;20078;-82
2023/03/13 05:07:22;;;;;;;0.80;0.80;;;;;;;-7.96;91.12;98394.88;4990202;28;20061;-82
2023/03/13 05:10:09;;;;;;;0.95;0.95;;;;;;;-7.83;90.70;98391.13;4989555;28;20145;-82
2023/03/13 05:12:43;;;;;;;1.00;1.00;;;;;;;-7.79;90.17;98392.50;4991483;28;20160;-82
2023/03/13 05:15:26;;;;;;;1.10;1.10;;;;;;;-7.69;89.80;98390.66;4998408;28;20050;-83
2023/03/13 05:18:12;;;;;;;0.90;0.90;;;;;;;-7.61;89.27;98401.25;5000069;28;20054;-83
2023/03/13 05:21:03;;;;;;;1.30;1.20;;;;;;;-7.54;89.29;98398.91;4990597;28;20066;-82
2023/03/13 05:23:42;;;;;;;1.00;1.00;;;;;;;-7.39;88.34;98409.69;4990670;28;20072;-83
2023/03/13 05:26:35;;;;;;;1.10;1.10;;;;;;;-7.25;87.88;98401.38;4991532;28;20437;-83
2023/03/13 05:29:25;;;;;;;1.00;1.00;;;;;;;-7.10;86.50;98412.19;4995131;28;20058;-82
2023/03/13 05:32:11;;;;;;;0.93;0.93;;;;;;;-6.99;85.92;98412.81;4990666;28;20086;-83
2023/03/13 05:35:05;;;;;;;0.80;0.80;;;;;;;-6.87;85.74;98418.66;4989688;28;20046;-83
2023/03/13 05:37:50;;;;;;;1.00;1.00;;;;;;;-6.81;85.41;98422.50;4989743;28;20058;-82
2023/03/13 05:40:28;;;;;;;1.00;1.00;;;;;;;-6.76;84.78;98422.88;4974338;28;20160;-82
2023/03/13 05:43:23;;;;;;;0.90;0.90;;;;;;;-6.95;84.58;98436.13;4988978;28;20085;-82
2023/03/13 05:46:09;;;;;;;0.90;0.90;;;;;;;-7.08;85.12;98434.69;4992588;28;20054;-85
2023/03/13 05:48:44;;;;;;;0.98;0.98;;;;;;;-7.06;85.08;98437.16;4651915;28;10000367;-80
2023/03/13 05:51:34;;;;;;;1.10;1.10;;;;;;;-6.92;85.25;98441.91;4993457;28;20128;-83
2023/03/13 05:54:18;;;;;;;0.90;0.90;;;;;;;-6.61;84.74;98445.03;4997729;28;20046;-83
2023/03/13 05:57:00;;;;;;;1.15;1.15;;;;;;;-6.37;84.11;98446.22;4967141;28;20046;-82
2023/03/13 05:59:40;;;;;;;1.10;1.10;;;;;;;-6.20;83.69;98466.41;4982797;28;20074;-82
2023/03/13 06:02:27;;;;;;;0.90;0.90;;;;;;;-6.29;83.03;98450.72;4977155;28;20125;-80
2023/03/13 06:04:55;;;;;;;1.10;1.10;;;;;;;-6.15;82.60;98469.41;4971633;28;20054;-81
2023/03/13 06:07:23;;;;;;;1.25;1.15;;;;;;;-6.26;82.17;98461.75;4985661;28;20051;-82
2023/03/13 06:09:50;;;;;;;1.00;1.00;;;;;;;-6.13;81.70;98470.09;4982951;28;20512;-80
2023/03/13 06:12:18;;;;;;;1.00;1.00;;;;;;;-6.00;81.24;98456.56;4988855;28;20129;-81
2023/03/13 06:14:45;;;;;;;0.90;0.90;;;;;;;-5.77;80.61;98461.25;4990509;28;20100;-81
2023/03/13 06:17:48;;;;;;;1.10;1.10;;;;;;;-5.59;79.06;98462.06;4975904;28;20054;-81
2023/03/13 06:20:15;;;;;;;1.00;1.00;;;;;;;-5.72;78.80;98473.00;4984223;28;20053;-83
2023/03/13 06:22:42;;;;;;;1.10;1.10;;;;;;;-5.41;78.96;98472.53;4985166;28;20161;-82
2023/03/13 06:25:10;;;;;;;1.00;1.00;;;;;;;-5.23;77.65;98481.16;4985934;28;20058;-83
2023/03/13 06:27:37;;;;;;;1.25;1.17;;;;;;;-5.04;76.54;98482.75;4985743;28;20526;-81
2023/03/13 06:30:04;;;;;;;1.25;1.17;;;;;;;-4.83;76.65;98482.31;4999084;28;20065;-83
2023/03/13 06:32:31;;;;;;;0.98;0.98;;;;;;;-4.74;76.13;98479.72;4996711;28;20870;-80
2023/03/13 06:35:03;;;;;;;1.10;1.10;;;;;;;-4.87;74.97;98486.25;5009999;28;20046;-82
2023/03/13 06:37:30;;;;;;;1.10;1.10;;;;;;;-5.02;74.34;98488.66;5008587;28;20050;-81
2023/03/13 06:39:58;;;;;;;1.00;1.00;;;;;;;-4.87;74.35;98502.03;4987257;28;20105;-81
2023/03/13 06:42:29;;;;;;;1.10;1.10;;;;;;;-4.67;73.99;98486.00;5000359;28;20054;-81
2023/03/13 06:44:56;;;;;;;1.00;1.00;;;;;;;-4.43;73.26;98498.38;4983025;28;20763;-81
2023/03/13 06:47:23;;;;;;;0.95;0.95;;;;;;;-4.33;72.71;98499.06;4986662;28;20196;-80
2023/03/13 06:49:50;;;;;;;1.02;1.02;;;;;;;-4.42;72.20;98481.63;4990901;28;20145;-81
2023/03/13 06:52:17;;;;;;;1.10;1.10;;;;;;;-4.34;72.77;98502.69;4990442;28;20137;-82
2023/03/13 06:54:46;;;;;;;1.08;1.08;;;;;;;-4.17;72.11;98495.66;4984081;28;20137;-82
2023/03/13 06:57:13;;;;;;;1.10;1.10;;;;;;;-4.11;70.80;98496.81;4992522;28;20050;-82
2023/03/13 06:59:40;;;;;;;0.90;0.90;;;;;;;-3.96;70.45;98503.91;4993034;28;20593;-82
2023/03/13 07:02:10;;;;;;;1.10;1.10;;;;;;;-3.89;69.83;98496.16;4987356;28;20098;-81
2023/03/13 07:04:37;;;;;;;1.00;1.00;;;;;;;-3.67;69.58;98515.78;4971969;28;20062;-81
2023/03/13 07:07:07;;;;;;;1.00;1.00;;;;;;;-3.48;69.75;98530.44;4973460;28;20081;-81
2023/03/13 07:09:48;;;;;;;0.93;0.93;;;;;;;-3.34;69.60;98521.00;4980824;28;20217;-82
2023/03/13 07:12:17;;;;;;;0.98;0.98;;;;;;;-3.40;69.37;98526.97;4991188;28;20057;-81
2023/03/13 07:14:44;;;;;;;0.98;0.98;;;;;;;-3.65;69.92;98536.69;4992882;28;20081;-82
2023/03/13 07:17:12;;;;;;;0.98;0.98;;;;;;;-3.79;69.71;98525.84;4992819;28;20050;-82
2023/03/13 07:19:39;;;;;;;1.00;1.00;;;;;;;-3.53;69.76;98538.84;4975778;28;20046;-81
2023/03/13 07:22:07;;;;;;;1.20;1.20;;;;;;;-3.24;69.36;98557.78;4991193;28;20612;-82
2023/03/13 07:24:35;;;;;;;1.10;1.10;;;;;;;-2.87;68.69;98555.38;4991091;28;20078;-82
2023/03/13 07:27:02;;;;;;;1.40;1.30;;;;;;;-2.68;67.51;98548.09;4975453;28;20074;-80
2023/03/13 07:29:34;;;;;;;1.40;1.30;;;;;;;-2.21;66.62;98548.00;4991120;28;20050;-81
2023/03/13 07:32:01;;;;;;;1.13;1.13;;;;;;;-2.26;65.59;98560.09;4992336;28;20060;-82
2023/03/13 07:34:33;;;;;;;1.38;1.27;;;;;;;-2.56;65.92;98556.44;4992134;28;20667;-82
2023/03/13 07:37:00;;;;;;;1.05;1.05;;;;;;;-2.56;66.74;98586.31;4992010;28;20050;-82
2023/03/13 07:39:30;;;;;;;1.00;1.00;;;;;;;-2.70;67.21;98581.78;4991640;28;20142;-82
2023/03/13 07:41:57;;;;;;;0.95;0.95;;;;;;;-2.65;67.42;98561.75;4991282;28;20570;-81
2023/03/13 07:44:26;;;;;;;0.85;0.85;;;;;;;-2.35;67.48;98584.94;4991651;28;20148;-82
2023/03/13 07:46:53;;;;;;;0.80;0.80;;;;;;;-2.56;66.02;98588.16;4959100;28;20505;-82
2023/03/13 07:49:21;;;;;;;1.50;1.40;;;;;;;-2.53;66.53;98582.50;4991470;28;20058;-82
2023/03/13 07:51:51;;;;;;;1.10;1.10;;;;;;;-2.36;65.79;98592.03;4991785;28;20050;-81
2023/03/13 07:54:21;;;;;;;1.00;1.00;;;;;;;-1.94;65.23;98598.78;4990696;28;20042;-83
2023/03/13 07:56:49;;;;;;;0.90;0.90;;;;;;;-1.93;64.67;98599.59;4991921;28;20439;-81
2023/03/13 07:59:16;;;;;;;1.00;1.00;;;;;;;-2.17;65.08;98606.66;4978589;28;20526;-83
2023/03/13 08:01:43;;;;;;;1.30;1.20;;;;;;;-2.32;65.36;98603.91;4972925;28;20518;-81
2023/03/13 08:04:13;;;;;;;1.00;1.00;;;;;;;-2.37;64.98;98589.56;4971594;28;20070;-82
2023/03/13 08:06:41;;;;;;;1.15;1.15;;;;;;;-1.77;65.14;98602.97;4971964;28;20046;-83
2023/03/13 08:09:11;;;;;;;1.38;1.27;;;;;;;-1.10;64.01;98614.69;4975206;28;20141;-83
2023/03/13 08:11:43;;;;;;;1.27;1.20;;;;;;;-1.23;62.37;98604.72;4991672;28;20057;-83
2023/03/13 08:14:10;;;;;;;1.30;1.20;;;;;;;-1.56;62.97;98606.78;4990803;28;20520;-81
2023/03/13 08:16:37;;;;;;;1.27;1.20;;;;;;;-1.86;64.24;98604.00;4993236;28;20046;-82
2023/03/13 08:19:05;;;;;;;1.50;1.40;;;;;;;-1.60;63.42;98600.19;4991984;28;20085;-81
2023/03/13 08:21:35;;;;;;;1.35;1.25;;;;;;;-1.67;61.97;98609.84;4993202;28;20142;-81
2023/03/13 08:24:05;;;;;;;1.60;1.50;;;;;;;-1.04;61.65;98615.78;4981961;28;20122;-82
2023/03/13 08:26:34;;;;;;;1.35;1.25;;;;;;;-1.08;59.80;98609.22;4990236;28;20524;-82
2023/03/13 08:29:06;;;;;;;0.95;0.95;;;;;;;-1.01;60.12;98615.44;4993739;28;20056;-85
2023/03/13 08:31:38;;;;;;;1.10;1.10;;;;;;;-1.53;61.36;98617.03;4977641;28;20127;-83
2023/03/13 08:34:11;;;;;;;0.85;0.85;;;;;;;-1.85;62.88;98616.25;4980386;28;20062;-85
2023/03/13 08:36:40;;;;;;;1.03;1.03;;;;;;;-1.92;64.17;98627.66;4967812;28;20058;-82
2023/03/13 08:39:16;;;;;;;0.73;0.73;;;;;;;-2.21;65.31;98624.66;4990750;28;20112;-82
2023/03/13 08:41:44;;;;;;;1.08;1.08;;;;;;;-2.16;65.96;98640.03;4998866;28;20090;-84
2023/03/13 08:44:13;;;;;;;1.08;1.08;;;;;;;-1.80;65.79;98643.00;5006566;28;20080;-84
2023/03/13 08:46:41;;;;;;;1.00;1.00;;;;;;;-1.64;65.49;98639.44;4986692;28;20050;-83
2023/03/13 08:49:08;;;;;;;1.10;1.10;;;;;;;-1.95;65.06;98650.00;4987380;28;20050;-81
2023/03/13 08:51:36;;;;;;;1.50;1.40;;;;;;;-1.45;64.53;98639.97;4987146;28;20167;-84
2023/03/13 08:54:06;;;;;;;1.10;1.10;;;;;;;-0.96;63.07;98645.69;4986680;28;20532;-81
2023/03/13 08:56:33;;;;;;;1.60;1.50;;;;;;;-1.33;63.77;98665.84;4987031;28;20054;-80
2023/03/13 08:59:04;;;;;;;1.27;1.20;;;;;;;-0.99;63.06;98653.97;4987378;28;20517;-79
2023/03/13 09:01:32;;;;;;;1.25;1.20;;;;;;;-0.37;62.06;98654.72;4989149;28;20054;-81
2023/03/13 09:04:07;;;;;;;0.95;0.95;;;;;;;-0.81;62.55;98669.59;4994005;28;20053;-80
2023/03/13 09:06:36;;;;;;;1.55;1.45;;;;;;;-0.24;62.10;98668.97;4990188;28;20564;-80
2023/03/13 09:09:04;;;;;;;1.60;1.50;;;;;;;0.29;59.06;98660.06;4999250;28;20813;-83
2023/03/13 09:11:32;;;;;;;1.60;1.50;;;;;;;-0.44;61.26;98676.66;4989982;28;20085;-82
2023/03/13 09:14:01;;;;;;;1.15;1.15;;;;;;;-0.78;61.27;98665.75;4992659;28;20057;-81
2023/03/13 09:16:31;;;;;;;1.30;1.20;;;;;;;-1.35;63.55;98670.50;4986786;28;20054;-83
2023/03/13 09:18:58;;;;;;;1.10;1.10;;;;;;;-1.71;63.75;98682.63;4994463;28;20134;-82
2023/03/13 09:21:31;;;;;;;1.27;1.20;;;;;;;-0.98;62.61;98679.50;4997880;28;20417;-81
2023/03/13 09:23:58;;;;;;;1.30;1.20;;;;;;;-0.57;62.09;98680.94;5000485;28;20049;-83
2023/03/13 09:26:27;;;;;;;1.38;1.27;;;;;;;0.24;59.30;98705.72;5006866;28;20139;-84
2023/03/13 09:28:55;;;;;;;1.17;1.17;;;;;;;-1.05;61.14;98697.09;4995094;28;20078;-82
2023/03/13 09:31:25;;;;;;;1.15;1.15;;;;;;;-1.89;64.21;98690.84;5009791;28;20144;-83
2023/03/13 09:33:57;;;;;;;1.30;1.20;;;;;;;-2.03;65.70;98695.00;5009694;28;20062;-83
2023/03/13 09:36:25;;;;;;;0.85;0.85;;;;;;;-2.15;66.04;98701.66;4991711;28;20433;-81
2023/03/13 09:38:54;;;;;;;1.10;1.10;;;;;;;-2.35;67.18;98707.34;4987028;28;20413;-86
2023/03/13 09:41:35;;;;;;;1.40;1.30;;;;;;;-2.46;68.42;98699.75;4986987;28;20126;-81
2023/03/13 09:44:08;;;;;;;0.90;0.90;;;;;;;-2.49;68.81;98702.75;4970420;28;20161;-84
2023/03/13 09:46:38;;;;;;;1.00;1.00;;;;;;;-2.55;69.47;98703.44;4970152;28;20067;-84
2023/03/13 09:49:27;;;;;;;1.05;1.05;;;;;;;-2.44;69.91;98708.34;4998923;28;20053;-83
2023/03/13 09:52:01;;;;;;;0.90;0.90;;;;;;;-2.57;69.39;98700.13;4989744;28;20074;-83
2023/03/13 09:54:38;;;;;;;1.30;1.20;;;;;;;-2.44;69.88;98706.53;4971336;28;20141;-83
2023/03/13 09:57:35;;;;;;;1.17;1.17;;;;;;;-2.16;69.12;98750.25;4996807;28;20054;-83
2023/03/13 10:00:11;;;;;;;1.00;1.00;;;;;;;-1.81;67.83;98699.53;4969999;28;20054;-84
2023/03/13 10:02:44;;;;;;;1.20;1.20;;;;;;;-1.94;68.09;98711.69;4958243;28;20062;-83
2023/03/13 10:05:24;;;;;;;1.30;1.20;;;;;;;-1.43;66.94;98707.59;4996871;28;20057;-83
2023/03/13 10:08:14;;;;;;;1.15;1.13;;;;;;;-1.93;68.30;98735.31;4993550;28;20121;-83
2023/03/13 10:10:44;;;;;;;1.05;1.05;;;;;;;-2.40;69.48;98725.53;4989960;28;20109;-84
2023/03/13 10:13:44;;;;;;;1.08;1.08;;;;;;;-2.54;70.44;98723.56;4992897;28;20062;-83
2023/03/13 10:16:24;;;;;;;0.90;0.90;;;;;;;-2.52;70.68;98724.22;4982096;28;20122;-83
2023/03/13 10:18:57;;;;;;;1.10;1.10;;;;;;;-2.39;71.46;98756.25;4991065;28;20053;-85
2023/03/13 10:21:33;;;;;;;1.00;1.00;;;;;;;-2.04;70.89;98738.31;4990406;28;20535;-82
2023/03/13 10:24:04;;;;;;;1.10;1.10;;;;;;;-2.03;70.41;98734.69;4990746;28;20157;-80
2023/03/13 10:26:35;;;;;;;0.95;0.95;;;;;;;-2.34;71.21;98745.19;4990994;28;20050;-83
2023/03/13 10:29:19;;;;;;;1.08;1.08;;;;;;;-2.60;71.34;98722.44;4988916;28;20158;-84
2023/03/13 10:32:02;;;;;;;0.93;0.93;;;;;;;-2.78;72.38;98735.00;4989589;28;20047;-82
2023/03/13 10:35:00;;;;;;;0.93;0.93;;;;;;;-2.87;73.38;98750.81;4991431;28;20567;-82
2023/03/13 10:37:40;;;;;;;0.90;0.90;;;;;;;-2.87;73.69;98757.94;4988201;28;20050;-85
2023/03/13 10:40:26;;;;;;;0.95;0.95;;;;;;;-2.92;73.57;98742.56;4991327;28;20109;-87
2023/03/13 10:43:24;;;;;;;0.80;0.80;;;;;;;-2.86;73.92;98759.56;4985315;28;20599;-84
2023/03/13 10:45:54;;;;;;;0.80;0.80;;;;;;;-2.87;74.43;98766.66;4979963;28;20572;-84
2023/03/13 10:48:27;;;;;;;0.82;0.82;;;;;;;-2.79;74.11;98772.94;4971225;28;20534;-82
2023/03/13 10:50:58;;;;;;;0.80;0.80;;;;;;;-2.87;74.08;98766.66;4955006;28;20051;-82
2023/03/13 10:53:28;;;;;;;1.00;1.00;;;;;;;-2.91;73.76;98764.50;4980090;28;20059;-86
2023/03/13 10:56:16;;;;;;;0.90;0.90;;;;;;;-2.89;73.15;98768.63;4983427;28;20097;-83
2023/03/13 10:58:46;;;;;;;0.73;0.73;;;;;;;-2.87;73.46;98773.78;4959038;28;20085;-84
2023/03/13 11:01:30;;;;;;;0.90;0.90;;;;;;;-2.73;73.33;98772.31;4977220;28;20055;-84
2023/03/13 11:04:01;;;;;;;0.90;0.90;;;;;;;-2.74;72.96;98787.31;4976018;28;20049;-82
2023/03/13 11:06:34;;;;;;;0.70;0.70;;;;;;;-2.67;72.42;98796.22;4988399;28;20053;-84
2023/03/13 11:09:17;;;;;;;1.20;1.15;;;;;;;-2.35;72.63;98791.13;4972910;28;20051;-86
2023/03/13 11:12:06;;;;;;;0.77;0.77;;;;;;;-2.29;70.89;98804.47;4639442;28;10000427;-88
2023/03/13 11:14:36;;;;;;;1.00;1.00;;;;;;;-2.44;70.13;98798.22;4977352;28;20054;-85
2023/03/13 11:17:28;;;;;;;0.90;0.90;;;;;;;-2.50;69.81;98799.72;4973745;28;20053;-83
2023/03/13 11:20:04;;;;;;;1.00;1.00;;;;;;;-2.50;70.24;98810.28;4985758;28;20050;-84
2023/03/13 11:22:56;;;;;;;0.75;0.75;;;;;;;-2.46;70.23;98797.53;4976641;28;20055;-84
2023/03/13 11:25:50;;;;;;;0.82;0.82;;;;;;;-2.56;67.68;98794.25;4994079;28;20100;-87
2023/03/13 11:28:48;;;;;;;1.15;1.15;;;;;;;-2.61;68.03;98807.94;4969849;28;20067;-85
2023/03/13 11:31:26;;;;;;;1.05;1.05;;;;;;;-2.57;68.73;98809.28;4953119;28;20051;-84
2023/03/13 11:34:15;;;;;;;0.90;0.90;;;;;;;-2.34;68.76;98809.44;4943976;29;20039;-84
2023/03/13 11:37:01;;;;;;;1.23;1.17;;;;;;;-2.07;67.17;98823.28;4983661;28;20047;-87
2023/03/13 11:39:53;;;;;;;1.10;1.10;;;;;;;-2.04;67.30;98809.72;4977623;28;20138;-85
2023/03/13 11:42:32;;;;;;;1.25;1.20;;;;;;;-1.98;66.70;98827.56;4957799;28;20148;-85
2023/03/13 11:45:22;;;;;;;1.15;1.15;;;;;;;-1.34;65.30;98824.91;4962173;28;20106;-84
2023/03/13 11:48:04;;;;;;;1.00;1.00;;;;;;;-1.79;65.13;98829.84;4921632;28;20071;-85
2023/03/13 11:50:51;;;;;;;1.10;1.10;;;;;;;-2.05;66.22;98845.94;4946656;28;20069;-84
2023/03/13 11:53:43;;;;;;;1.00;1.00;;;;;;;-2.04;66.92;98841.47;4965947;28;20589;-83
2023/03/13 11:56:20;;;;;;;1.10;1.10;;;;;;;-2.05;67.03;98845.94;4955469;28;20054;-84
2023/03/13 11:59:12;;;;;;;0.90;0.90;;;;;;;-2.10;67.83;98842.13;4951885;29;20047;-84
2023/03/13 12:01:43;;;;;;;0.88;0.88;;;;;;;-2.07;68.90;98836.53;4944949;28;20117;-84
2023/03/13 12:04:19;;;;;;;1.00;1.00;;;;;;;-1.98;70.00;98840.78;4932467;28;20070;-83
2023/03/13 12:07:09;;;;;;;1.10;1.10;;;;;;;-1.63;70.34;98846.66;4933992;28;20050;-84